createdAt,value
2019-06-10T00:01:32.517Z,18.10
2019-06-10T00:03:52.315Z,18.10
2019-06-10T00:06:13.434Z,18.10
2019-06-10T00:08:32.452Z,18.10
2019-06-10T00:10:54.126Z,18.00
2019-06-10T00:13:13.780Z,18.00
2019-06-10T00:15:32.760Z,18.00
2019-06-10T00:18:07.013Z,17.90
2019-06-10T00:20:12.468Z,17.80
2019-06-10T00:22:31.628Z,17.70
2019-06-10T00:24:52.227Z,17.90
2019-06-10T00:27:11.917Z,17.90
2019-06-10T00:29:31.349Z,17.80
2019-06-10T00:31:50.870Z,17.80
2019-06-10T00:34:12.090Z,17.90
2019-06-10T00:36:30.970Z,17.90
2019-06-10T00:38:51.720Z,18.00
2019-06-10T00:41:13.994Z,17.90
2019-06-10T00:43:31.349Z,17.80
2019-06-10T00:45:51.317Z,17.80
2019-06-10T00:48:24.042Z,17.70
2019-06-10T00:50:31.467Z,17.60
2019-06-10T00:52:51.675Z,17.60
2019-06-10T00:55:12.509Z,17.60
2019-06-10T00:57:31.559Z,17.50
2019-06-10T00:59:50.856Z,17.40
2019-06-10T01:02:12.526Z,17.30
2019-06-10T01:04:31.879Z,17.20
2019-06-10T01:06:51.519Z,17.20
2019-06-10T01:09:12.783Z,17.40
2019-06-10T01:11:31.252Z,17.50
2019-06-10T01:13:50.868Z,17.50
2019-06-10T01:16:12.131Z,17.50
2019-06-10T01:18:37.565Z,17.30
2019-06-10T01:20:51.709Z,17.50
2019-06-10T01:23:13.787Z,17.60
2019-06-10T01:25:31.457Z,17.50
2019-06-10T01:27:51.529Z,17.40
2019-06-10T01:30:18.733Z,17.50
2019-06-10T01:32:31.390Z,17.40
2019-06-10T01:34:50.893Z,17.40
2019-06-10T01:37:11.779Z,17.30
2019-06-10T01:39:30.972Z,17.20
2019-06-10T01:41:51.243Z,17.20
2019-06-10T01:44:14.256Z,17.10
2019-06-10T01:46:31.690Z,17.10
2019-06-10T01:48:52.082Z,17.10
2019-06-10T01:51:14.331Z,17.00
2019-06-10T01:53:33.703Z,16.90
2019-06-10T01:55:52.695Z,16.90
2019-06-10T01:58:14.670Z,16.90
2019-06-10T02:00:36.748Z,16.90
2019-06-10T02:02:56.376Z,16.90
2019-06-10T02:05:16.682Z,17.00
2019-06-10T02:07:36.499Z,17.00
2019-06-10T02:09:55.522Z,17.00
2019-06-10T02:12:17.527Z,16.80
2019-06-10T02:14:35.242Z,16.80
2019-06-10T02:16:54.356Z,16.80
2019-06-10T02:19:15.496Z,16.80
2019-06-10T02:21:34.117Z,16.90
2019-06-10T02:23:53.136Z,16.90
2019-06-10T02:26:14.882Z,16.80
2019-06-10T02:28:33.835Z,16.70
2019-06-10T02:30:55.843Z,16.70
2019-06-10T02:33:17.357Z,16.60
2019-06-10T02:35:44.010Z,16.50
2019-06-10T02:37:54.932Z,16.50
2019-06-10T02:40:18.388Z,16.50
2019-06-10T02:42:36.462Z,16.60
2019-06-10T02:44:55.552Z,16.70
2019-06-10T02:47:19.170Z,16.80
2019-06-10T02:49:55.753Z,17.00
2019-06-10T02:51:55.991Z,16.90
2019-06-10T02:54:16.868Z,16.90
2019-06-10T02:56:36.668Z,16.80
2019-06-10T02:58:59.239Z,16.70
2019-06-10T03:01:19.881Z,16.80
2019-06-10T03:03:44.504Z,16.90
2019-06-10T03:05:59.808Z,16.80
2019-06-10T03:08:22.161Z,16.80
2019-06-10T03:10:39.788Z,16.90
2019-06-10T03:12:58.800Z,16.90
2019-06-10T03:15:17.931Z,16.80
2019-06-10T03:17:36.933Z,16.80
2019-06-10T03:19:56.966Z,16.80
2019-06-10T03:22:16.041Z,16.80
2019-06-10T03:24:35.035Z,16.90
2019-06-10T03:26:53.983Z,16.90
2019-06-10T03:29:13.121Z,16.90
2019-06-10T03:31:41.069Z,16.90
2019-06-10T03:33:54.422Z,16.90
2019-06-10T03:36:13.584Z,16.90
2019-06-10T03:38:32.778Z,16.80
2019-06-10T03:40:52.479Z,16.80
2019-06-10T03:43:11.953Z,16.80
2019-06-10T03:45:32.400Z,16.80
2019-06-10T03:47:52.728Z,16.90
2019-06-10T03:50:13.196Z,16.80
2019-06-10T03:52:32.565Z,16.70
2019-06-10T03:54:52.485Z,16.70
2019-06-10T03:57:12.085Z,16.80
2019-06-10T03:59:32.401Z,16.90
2019-06-10T04:01:53.041Z,16.90
2019-06-10T04:04:13.063Z,17.00
2019-06-10T04:06:33.743Z,17.00
2019-06-10T04:08:52.867Z,16.90
2019-06-10T04:11:12.274Z,16.90
2019-06-10T04:13:33.516Z,16.90
2019-06-10T04:15:53.478Z,16.90
2019-06-10T04:18:12.821Z,17.10
2019-06-10T04:20:33.354Z,17.10
2019-06-10T04:22:52.422Z,17.10
2019-06-10T04:25:12.141Z,17.20
2019-06-10T04:27:32.809Z,17.20
2019-06-10T04:29:53.586Z,17.30
2019-06-10T04:32:13.701Z,17.30
2019-06-10T04:34:33.390Z,17.30
2019-06-10T04:36:54.017Z,17.50
2019-06-10T04:39:16.077Z,17.60
2019-06-10T04:41:35.083Z,17.60
2019-06-10T04:43:54.069Z,17.60
2019-06-10T04:46:14.765Z,17.60
2019-06-10T04:48:33.756Z,17.70
2019-06-10T04:50:53.332Z,17.80
2019-06-10T04:53:12.965Z,17.90
2019-06-10T04:55:32.607Z,17.90
2019-06-10T04:57:52.104Z,18.00
2019-06-10T05:00:14.574Z,18.00
2019-06-10T05:02:33.064Z,18.00
2019-06-10T05:04:53.216Z,18.20
2019-06-10T05:07:12.675Z,18.20
2019-06-10T05:09:33.580Z,18.30
2019-06-10T05:11:52.405Z,18.40
2019-06-10T05:14:13.279Z,18.40
2019-06-10T05:16:35.522Z,18.40
2019-06-10T05:18:54.952Z,18.50
2019-06-10T05:21:13.380Z,18.60
2019-06-10T05:23:32.953Z,18.60
2019-06-10T05:25:52.778Z,18.70
2019-06-10T05:28:12.877Z,18.90
2019-06-10T05:30:34.037Z,19.00
2019-06-10T05:32:52.517Z,19.20
2019-06-10T05:35:12.691Z,19.30
2019-06-10T05:37:33.909Z,19.30
2019-06-10T05:39:53.432Z,19.40
2019-06-10T05:42:12.866Z,19.40
2019-06-10T05:44:34.459Z,19.50
2019-06-10T05:46:52.892Z,19.60
2019-06-10T05:49:12.515Z,19.60
2019-06-10T05:51:34.918Z,19.70
2019-06-10T05:53:52.965Z,19.70
2019-06-10T05:56:12.833Z,19.80
2019-06-10T05:58:35.940Z,19.90
2019-06-10T06:00:54.599Z,20.00
2019-06-10T06:03:13.601Z,20.10
2019-06-10T06:05:34.479Z,20.20
2019-06-10T06:08:04.892Z,20.40
2019-06-10T06:10:15.108Z,20.50
2019-06-10T06:12:35.731Z,20.60
2019-06-10T06:14:54.834Z,20.70
2019-06-10T06:17:16.642Z,20.70
2019-06-10T06:19:37.379Z,20.80
2019-06-10T06:21:55.136Z,20.90
2019-06-10T06:24:14.125Z,20.90
2019-06-10T06:26:37.885Z,21.10
2019-06-10T06:28:54.940Z,21.10
2019-06-10T06:31:14.918Z,21.30
2019-06-10T06:33:37.966Z,21.50
2019-06-10T06:35:55.487Z,21.60
2019-06-10T06:38:14.576Z,21.70
2019-06-10T06:40:35.611Z,21.80
2019-06-10T06:42:54.303Z,21.90
2019-06-10T06:45:13.597Z,22.00
2019-06-10T06:47:34.464Z,22.30
2019-06-10T06:49:54.195Z,22.40
2019-06-10T06:52:13.170Z,22.50
2019-06-10T06:54:36.075Z,22.60
2019-06-10T06:56:54.502Z,22.70
2019-06-10T06:59:13.570Z,23.00
2019-06-10T07:01:34.947Z,23.10
2019-06-10T07:03:53.732Z,23.00
2019-06-10T07:06:14.130Z,23.20
2019-06-10T07:08:35.781Z,23.50
2019-06-10T07:10:55.424Z,23.90
2019-06-10T07:13:14.477Z,24.00
2019-06-10T07:15:46.900Z,24.20
2019-06-10T07:18:04.598Z,24.30
2019-06-10T07:20:23.562Z,24.50
2019-06-10T07:22:46.283Z,24.70
2019-06-10T07:25:06.651Z,24.90
2019-06-10T07:27:25.796Z,25.00
2019-06-10T07:29:47.182Z,24.70
2019-06-10T07:32:05.429Z,25.00
2019-06-10T07:34:24.457Z,25.20
2019-06-10T07:36:45.166Z,25.30
2019-06-10T07:39:05.616Z,25.50
2019-06-10T07:41:24.752Z,25.40
2019-06-10T07:43:49.535Z,25.40
2019-06-10T07:46:04.462Z,25.50
2019-06-10T07:48:24.054Z,25.80
2019-06-10T07:50:45.592Z,25.90
2019-06-10T07:53:03.801Z,26.10
2019-06-10T07:55:23.064Z,26.10
2019-06-10T07:57:44.370Z,25.70
2019-06-10T08:00:07.772Z,25.90
2019-06-10T08:02:26.826Z,25.90
2019-06-10T08:04:46.149Z,26.30
2019-06-10T08:07:05.375Z,26.50
2019-06-10T08:09:24.340Z,26.90
2019-06-10T08:11:46.713Z,27.00
2019-06-10T08:14:05.105Z,27.10
2019-06-10T08:16:24.118Z,27.30
2019-06-10T08:19:09.667Z,27.40
2019-06-10T08:21:05.940Z,27.40
2019-06-10T08:23:24.967Z,27.30
2019-06-10T08:25:51.007Z,27.50
2019-06-10T08:28:05.065Z,27.70
2019-06-10T08:30:27.609Z,27.10
2019-06-10T08:32:47.126Z,27.00
2019-06-10T08:35:06.262Z,27.20
2019-06-10T08:37:25.275Z,27.40
2019-06-10T08:39:45.909Z,27.50
2019-06-10T08:42:05.005Z,27.00
2019-06-10T08:44:24.006Z,27.20
2019-06-10T08:46:45.281Z,27.50
2019-06-10T08:49:05.366Z,27.80
2019-06-10T08:51:24.344Z,27.50
2019-06-10T08:53:46.564Z,27.90
2019-06-10T08:56:04.080Z,28.00
2019-06-10T08:58:23.314Z,28.10
2019-06-10T09:00:45.057Z,28.40
2019-06-10T09:03:04.116Z,28.40
2019-06-10T09:05:23.777Z,28.20
2019-06-10T09:07:47.722Z,28.50
2019-06-10T09:10:04.676Z,28.80
2019-06-10T09:12:32.953Z,29.20
2019-06-10T09:14:48.203Z,28.20
2019-06-10T09:17:06.642Z,28.20
2019-06-10T09:19:25.699Z,28.70
2019-06-10T09:21:49.096Z,28.90
2019-06-10T09:24:05.326Z,28.80
2019-06-10T09:26:24.423Z,28.50
2019-06-10T09:28:47.115Z,28.90
2019-06-10T09:31:05.432Z,29.10
2019-06-10T09:33:24.604Z,28.30
2019-06-10T09:35:46.141Z,28.70
2019-06-10T09:38:04.267Z,28.90
2019-06-10T09:40:24.845Z,28.60
2019-06-10T09:42:47.647Z,29.30
2019-06-10T09:45:08.502Z,29.70
2019-06-10T09:47:27.909Z,30.20
2019-06-10T09:49:50.390Z,30.40
2019-06-10T09:52:08.583Z,30.00
2019-06-10T09:54:27.627Z,29.60
2019-06-10T09:56:48.479Z,29.20
2019-06-10T09:59:09.678Z,29.90
2019-06-10T10:01:28.806Z,29.80
2019-06-10T10:03:53.828Z,30.00
2019-06-10T10:06:15.420Z,29.60
2019-06-10T10:08:32.700Z,29.50
2019-06-10T10:10:58.214Z,29.30
2019-06-10T10:13:13.472Z,29.10
2019-06-10T10:15:34.499Z,29.10
2019-06-10T10:17:56.362Z,29.10
2019-06-10T10:20:15.232Z,28.80
2019-06-10T10:22:34.277Z,29.50
2019-06-10T10:24:56.673Z,29.90
2019-06-10T10:27:14.140Z,30.10
2019-06-10T10:29:33.218Z,30.00
2019-06-10T10:31:54.159Z,29.90
2019-06-10T10:34:13.510Z,29.40
2019-06-10T10:36:34.753Z,29.90
2019-06-10T10:38:53.780Z,30.10
2019-06-10T10:41:14.118Z,30.40
2019-06-10T10:43:37.423Z,30.60
2019-06-10T10:45:59.920Z,30.10
2019-06-10T10:48:17.391Z,29.70
2019-06-10T10:50:36.496Z,30.40
2019-06-10T10:52:55.455Z,30.30
2019-06-10T10:55:16.175Z,29.60
2019-06-10T10:57:35.184Z,30.00
2019-06-10T10:59:57.123Z,30.00
2019-06-10T11:02:17.862Z,30.20
2019-06-10T11:04:42.086Z,30.30
2019-06-10T11:07:03.330Z,30.20
2019-06-10T11:09:24.693Z,30.00
2019-06-10T11:11:45.693Z,30.30
2019-06-10T11:14:05.084Z,30.80
2019-06-10T11:16:24.752Z,30.50
2019-06-10T11:18:45.098Z,30.70
2019-06-10T11:21:05.162Z,31.00
2019-06-10T11:23:24.380Z,31.20
2019-06-10T11:25:43.338Z,31.10
2019-06-10T11:28:04.121Z,30.70
2019-06-10T11:30:23.461Z,30.70
2019-06-10T11:32:43.248Z,31.30
2019-06-10T11:35:02.865Z,31.60
2019-06-10T11:37:23.121Z,32.00
2019-06-10T11:39:42.211Z,32.20
2019-06-10T11:42:03.651Z,32.10
2019-06-10T11:44:22.509Z,32.00
2019-06-10T11:46:43.035Z,32.20
2019-06-10T11:49:03.882Z,32.10
2019-06-10T11:51:23.562Z,30.90
2019-06-10T11:53:44.290Z,31.00
2019-06-10T11:56:03.294Z,31.50
2019-06-10T11:58:22.550Z,31.50
2019-06-10T12:00:42.669Z,31.50
2019-06-10T12:03:03.536Z,31.20
2019-06-10T12:05:23.548Z,31.40
2019-06-10T12:07:42.860Z,31.40
2019-06-10T12:10:03.115Z,31.50
2019-06-10T12:12:22.178Z,31.40
2019-06-10T12:14:43.580Z,30.90
2019-06-10T12:17:21.433Z,31.10
2019-06-10T12:19:23.581Z,31.50
2019-06-10T12:21:45.452Z,31.70
2019-06-10T12:24:04.448Z,31.90
2019-06-10T12:26:23.619Z,32.10
2019-06-10T12:28:43.447Z,31.90
2019-06-10T12:31:06.578Z,31.20
2019-06-10T12:33:25.422Z,31.80
2019-06-10T12:35:45.907Z,32.30
2019-06-10T12:38:06.297Z,32.10
2019-06-10T12:40:27.311Z,31.90
2019-06-10T12:42:47.211Z,32.00
2019-06-10T12:45:08.508Z,32.30
2019-06-10T12:47:27.821Z,32.10
2019-06-10T12:49:48.311Z,31.60
2019-06-10T12:52:08.278Z,31.70
2019-06-10T12:54:27.326Z,31.90
2019-06-10T12:56:46.404Z,32.30
2019-06-10T12:59:09.658Z,32.50
2019-06-10T13:01:26.152Z,32.40
2019-06-10T13:03:45.394Z,32.10
2019-06-10T13:06:07.338Z,32.00
2019-06-10T13:08:26.658Z,31.90
2019-06-10T13:10:45.862Z,32.40
2019-06-10T13:13:07.285Z,32.60
2019-06-10T13:15:25.543Z,33.00
2019-06-10T13:17:44.565Z,33.20
2019-06-10T13:20:06.341Z,33.20
2019-06-10T13:22:25.438Z,32.80
2019-06-10T13:24:44.787Z,33.00
2019-06-10T13:27:06.253Z,33.50
2019-06-10T13:29:25.213Z,33.30
2019-06-10T13:31:45.958Z,32.90
2019-06-10T13:34:10.669Z,32.50
2019-06-10T13:36:26.211Z,32.80
2019-06-10T13:38:45.215Z,32.80
2019-06-10T13:41:04.341Z,32.60
2019-06-10T13:43:25.218Z,32.00
2019-06-10T13:45:45.865Z,32.00
2019-06-10T13:48:08.371Z,31.90
2019-06-10T13:50:25.842Z,32.60
2019-06-10T13:52:44.961Z,32.70
2019-06-10T13:55:07.477Z,33.30
2019-06-10T13:57:25.904Z,33.30
2019-06-10T13:59:46.416Z,33.30
2019-06-10T14:02:08.242Z,33.50
2019-06-10T14:04:29.610Z,32.80
2019-06-10T14:06:50.570Z,32.90
2019-06-10T14:09:15.680Z,32.40
2019-06-10T14:11:30.301Z,32.60
2019-06-10T14:13:52.699Z,32.40
2019-06-10T14:16:14.002Z,32.80
2019-06-10T14:18:33.733Z,33.30
2019-06-10T14:20:53.330Z,33.80
2019-06-10T14:23:13.159Z,33.90
2019-06-10T14:25:33.830Z,32.50
2019-06-10T14:27:54.946Z,32.60
2019-06-10T14:30:15.479Z,32.40
2019-06-10T14:32:34.615Z,32.60
2019-06-10T14:34:53.724Z,32.80
2019-06-10T14:37:15.269Z,32.80
2019-06-10T14:39:33.462Z,31.90
2019-06-10T14:41:52.447Z,32.00
2019-06-10T14:44:16.074Z,32.50
2019-06-10T14:46:33.823Z,32.40
2019-06-10T14:48:53.297Z,32.10
2019-06-10T14:51:16.599Z,31.60
2019-06-10T14:53:34.034Z,32.30
2019-06-10T14:55:55.795Z,32.40
2019-06-10T14:58:18.637Z,32.80
2019-06-10T15:00:35.450Z,32.90
2019-06-10T15:02:54.536Z,32.90
2019-06-10T15:05:15.614Z,33.00
2019-06-10T15:07:37.473Z,33.00
2019-06-10T15:09:56.551Z,32.90
2019-06-10T15:12:17.337Z,32.60
2019-06-10T15:14:38.361Z,31.90
2019-06-10T15:16:57.044Z,31.70
2019-06-10T15:19:24.473Z,31.40
2019-06-10T15:21:37.635Z,31.90
2019-06-10T15:23:57.613Z,31.80
2019-06-10T15:26:18.773Z,31.80
2019-06-10T15:28:37.846Z,31.50
2019-06-10T15:30:56.879Z,31.80
2019-06-10T15:33:18.179Z,31.80
2019-06-10T15:35:36.965Z,31.60
2019-06-10T15:37:58.626Z,31.60
2019-06-10T15:40:19.720Z,31.50
2019-06-10T15:42:42.553Z,31.40
2019-06-10T15:45:02.515Z,31.00
2019-06-10T15:47:26.440Z,30.80
2019-06-10T15:49:42.373Z,31.00
2019-06-10T15:52:03.283Z,30.70
2019-06-10T15:54:25.317Z,30.50
2019-06-10T15:56:50.046Z,30.30
2019-06-10T15:59:03.514Z,30.30
2019-06-10T16:01:26.813Z,30.00
2019-06-10T16:03:43.293Z,29.90
2019-06-10T16:06:03.096Z,29.90
2019-06-10T16:08:22.660Z,30.20
2019-06-10T16:10:43.308Z,30.10
2019-06-10T16:13:03.395Z,30.00
2019-06-10T16:15:25.537Z,29.90
2019-06-10T16:17:43.268Z,30.10
2019-06-10T16:20:03.848Z,30.00
2019-06-10T16:22:25.860Z,30.10
2019-06-10T16:24:43.751Z,29.90
2019-06-10T16:27:03.310Z,29.70
2019-06-10T16:29:24.237Z,29.80
2019-06-10T16:31:45.325Z,29.70
2019-06-10T16:34:04.493Z,29.60
2019-06-10T16:36:27.774Z,29.60
2019-06-10T16:38:46.378Z,29.60
2019-06-10T16:41:05.479Z,29.60
2019-06-10T16:43:27.694Z,29.40
2019-06-10T16:45:49.384Z,29.20
2019-06-10T16:48:08.637Z,29.20
2019-06-10T16:50:27.683Z,29.20
2019-06-10T16:52:46.764Z,29.20
2019-06-10T16:55:06.642Z,29.10
2019-06-10T16:57:27.412Z,29.00
2019-06-10T16:59:51.957Z,29.00
2019-06-10T17:02:12.659Z,28.90
2019-06-10T17:04:33.186Z,29.00
2019-06-10T17:06:52.604Z,28.90
2019-06-10T17:09:13.472Z,28.80
2019-06-10T17:11:32.527Z,28.80
2019-06-10T17:13:52.636Z,28.70
2019-06-10T17:16:14.326Z,28.60
2019-06-10T17:18:33.752Z,28.50
2019-06-10T17:20:53.455Z,28.50
2019-06-10T17:23:28.920Z,28.60
2019-06-10T17:25:45.590Z,28.50
2019-06-10T17:28:17.705Z,28.40
2019-06-10T17:30:26.518Z,28.30
2019-06-10T17:32:45.969Z,28.20
2019-06-10T17:35:05.227Z,28.10
2019-06-10T17:37:24.461Z,28.00
2019-06-10T17:39:43.512Z,28.00
2019-06-10T17:42:02.580Z,27.90
2019-06-10T17:44:24.342Z,27.80
2019-06-10T17:46:43.830Z,27.80
2019-06-10T17:49:04.695Z,27.80
2019-06-10T17:51:26.134Z,27.80
2019-06-10T17:53:44.543Z,27.70
2019-06-10T17:56:06.696Z,27.60
2019-06-10T17:58:39.389Z,27.60
2019-06-10T18:00:48.115Z,27.60
2019-06-10T18:03:07.178Z,27.60
2019-06-10T18:05:27.241Z,27.50
2019-06-10T18:07:46.232Z,27.30
2019-06-10T18:10:06.668Z,27.40
2019-06-10T18:12:25.788Z,27.30
2019-06-10T18:14:45.047Z,27.10
2019-06-10T18:17:06.965Z,27.10
2019-06-10T18:19:30.324Z,27.10
2019-06-10T18:21:48.286Z,27.00
2019-06-10T18:24:08.368Z,26.90
2019-06-10T18:26:28.962Z,26.90
2019-06-10T18:29:00.494Z,26.90
2019-06-10T18:31:08.984Z,26.90
2019-06-10T18:33:27.938Z,26.80
2019-06-10T18:35:47.015Z,26.70
2019-06-10T18:38:06.055Z,26.60
2019-06-10T18:40:25.337Z,26.30
2019-06-10T18:42:44.680Z,26.20
2019-06-10T18:45:05.008Z,26.20
2019-06-10T18:47:24.092Z,26.10
2019-06-10T18:49:44.255Z,26.00
2019-06-10T18:52:03.279Z,25.90
2019-06-10T18:54:22.653Z,25.70
2019-06-10T18:56:43.057Z,25.70
2019-06-10T18:59:15.633Z,25.60
2019-06-10T19:01:24.531Z,25.70
2019-06-10T19:03:43.523Z,25.60
2019-06-10T19:06:04.537Z,25.50
2019-06-10T19:08:23.602Z,25.50
2019-06-10T19:10:44.673Z,25.40
2019-06-10T19:13:04.491Z,25.40
2019-06-10T19:15:24.258Z,25.30
2019-06-10T19:17:44.482Z,25.20
2019-06-10T19:20:04.851Z,25.20
2019-06-10T19:22:23.853Z,25.20
2019-06-10T19:24:44.882Z,25.10
2019-06-10T19:27:05.614Z,25.10
2019-06-10T19:29:33.425Z,25.10
2019-06-10T19:31:46.287Z,25.00
2019-06-10T19:34:05.509Z,24.90
2019-06-10T19:36:24.424Z,24.90
2019-06-10T19:38:44.387Z,24.80
2019-06-10T19:41:06.306Z,24.70
2019-06-10T19:43:25.342Z,24.70
2019-06-10T19:45:44.306Z,24.70
2019-06-10T19:48:03.574Z,24.60
2019-06-10T19:50:24.311Z,24.60
2019-06-10T19:52:45.345Z,24.50
2019-06-10T19:55:07.368Z,24.50
2019-06-10T19:57:27.355Z,24.50
2019-06-10T20:00:03.766Z,24.20
2019-06-10T20:02:08.954Z,24.10
2019-06-10T20:04:28.067Z,23.90
2019-06-10T20:06:50.595Z,23.90
2019-06-10T20:09:09.619Z,23.90
2019-06-10T20:11:28.777Z,23.90
2019-06-10T20:13:47.870Z,23.90
2019-06-10T20:16:06.863Z,23.90
2019-06-10T20:18:26.753Z,23.90
2019-06-10T20:20:47.129Z,23.90
2019-06-10T20:23:08.686Z,24.00
2019-06-10T20:25:27.210Z,23.90
2019-06-10T20:27:47.958Z,24.00
2019-06-10T20:30:21.552Z,24.00
2019-06-10T20:32:28.977Z,24.20
2019-06-10T20:34:49.614Z,24.20
2019-06-10T20:37:09.774Z,24.10
2019-06-10T20:39:29.601Z,24.20
2019-06-10T20:41:52.058Z,24.20
2019-06-10T20:44:09.504Z,24.10
2019-06-10T20:46:28.432Z,24.10
2019-06-10T20:48:49.785Z,24.00
2019-06-10T20:51:09.436Z,24.00
2019-06-10T20:53:28.375Z,23.90
2019-06-10T20:55:52.726Z,23.70
2019-06-10T20:58:08.157Z,23.70
2019-06-10T21:00:34.424Z,23.80
2019-06-10T21:02:53.763Z,23.80
2019-06-10T21:05:13.410Z,23.70
2019-06-10T21:07:32.556Z,23.70
2019-06-10T21:09:53.401Z,23.70
2019-06-10T21:12:13.017Z,23.70
2019-06-10T21:14:33.650Z,23.60
2019-06-10T21:16:53.689Z,23.60
2019-06-10T21:19:12.751Z,23.60
2019-06-10T21:21:32.702Z,23.50
2019-06-10T21:23:54.153Z,23.50
2019-06-10T21:26:13.240Z,23.40
2019-06-10T21:28:32.667Z,23.30
2019-06-10T21:30:54.915Z,23.30
2019-06-10T21:33:13.030Z,23.20
2019-06-10T21:35:33.505Z,23.10
2019-06-10T21:37:52.496Z,23.00
2019-06-10T21:40:12.776Z,23.00
2019-06-10T21:42:32.720Z,23.00
2019-06-10T21:44:52.118Z,23.00
2019-06-10T21:47:12.937Z,23.00
2019-06-10T21:49:32.265Z,23.10
2019-06-10T21:51:55.299Z,23.00
2019-06-10T21:54:12.077Z,22.90
2019-06-10T21:56:32.829Z,22.80
2019-06-10T21:58:54.138Z,22.80
2019-06-10T22:01:16.622Z,22.70
2019-06-10T22:03:32.973Z,22.70
2019-06-10T22:05:52.049Z,22.60
2019-06-10T22:08:12.485Z,22.60
2019-06-10T22:10:33.541Z,22.50
2019-06-10T22:12:53.134Z,22.40
2019-06-10T22:15:12.965Z,22.40
2019-06-10T22:17:31.975Z,22.30
2019-06-10T22:19:53.182Z,22.20
2019-06-10T22:22:12.996Z,22.20
2019-06-10T22:24:32.072Z,22.20
2019-06-10T22:26:53.107Z,22.10
2019-06-10T22:29:12.661Z,22.20
2019-06-10T22:31:32.733Z,22.30
2019-06-10T22:33:54.284Z,22.30
2019-06-10T22:36:13.000Z,22.40
2019-06-10T22:38:32.885Z,22.40
2019-06-10T22:40:55.017Z,22.40
2019-06-10T22:43:13.021Z,22.20
2019-06-10T22:45:32.444Z,22.10
2019-06-10T22:47:52.586Z,22.00
2019-06-10T22:50:12.672Z,21.90
2019-06-10T22:52:32.121Z,21.80
2019-06-10T22:54:54.063Z,21.70
2019-06-10T22:57:12.984Z,21.60
2019-06-10T22:59:31.999Z,21.60
2019-06-10T23:01:53.571Z,21.60
2019-06-10T23:04:13.439Z,21.60
2019-06-10T23:06:33.938Z,21.60
2019-06-10T23:08:55.063Z,21.50
2019-06-10T23:11:13.748Z,21.40
2019-06-10T23:13:32.718Z,21.40
2019-06-10T23:15:54.007Z,21.50
2019-06-10T23:18:12.845Z,21.30
2019-06-10T23:20:33.219Z,21.30
2019-06-10T23:22:56.091Z,21.40
2019-06-10T23:25:14.057Z,21.30
2019-06-10T23:27:32.982Z,21.20
2019-06-10T23:29:54.002Z,21.20
2019-06-10T23:32:13.064Z,21.10
2019-06-10T23:34:33.063Z,21.10
2019-06-10T23:36:55.343Z,21.20
2019-06-10T23:39:15.179Z,21.20
2019-06-10T23:41:34.149Z,21.20
2019-06-10T23:43:55.069Z,21.20
2019-06-10T23:46:14.037Z,21.10
2019-06-10T23:48:33.070Z,21.10
2019-06-10T23:50:55.663Z,21.10
2019-06-10T23:53:14.419Z,21.10
2019-06-10T23:55:35.064Z,21.00
2019-06-10T23:57:54.783Z,20.90
